createdAt,value
2019-01-26T00:01:35.555Z,40.47
2019-01-26T00:04:04.322Z,40.47
2019-01-26T00:06:33.019Z,34.77
2019-01-26T00:09:01.819Z,37.47
2019-01-26T00:11:30.541Z,31.60
2019-01-26T00:13:59.294Z,33.90
2019-01-26T00:16:28.188Z,33.13
2019-01-26T00:18:56.974Z,34.40
2019-01-26T00:21:25.766Z,33.07
2019-01-26T00:23:54.551Z,35.30
2019-01-26T00:26:23.558Z,31.53
2019-01-26T00:28:52.419Z,35.87
2019-01-26T00:31:21.216Z,33.67
2019-01-26T00:33:50.023Z,30.73
2019-01-26T00:36:18.808Z,29.90
2019-01-26T00:38:47.490Z,25.50
2019-01-26T00:41:16.253Z,26.17
2019-01-26T00:43:45.069Z,28.47
2019-01-26T00:46:13.733Z,26.73
2019-01-26T00:48:42.545Z,31.30
2019-01-26T00:51:11.206Z,29.30
2019-01-26T00:53:39.916Z,27.67
2019-01-26T00:56:08.704Z,29.87
2019-01-26T00:58:37.390Z,25.40
2019-01-26T01:01:06.078Z,30.57
2019-01-26T01:03:34.891Z,27.23
2019-01-26T01:06:03.869Z,28.23
2019-01-26T01:08:32.756Z,27.60
2019-01-26T01:11:01.646Z,29.10
2019-01-26T01:13:30.536Z,25.80
2019-01-26T01:15:59.426Z,29.03
2019-01-26T01:18:28.214Z,28.53
2019-01-26T01:20:57.066Z,32.87
2019-01-26T01:23:25.894Z,30.00
2019-01-26T01:25:54.683Z,29.53
2019-01-26T01:28:23.470Z,27.07
2019-01-26T01:30:52.133Z,28.50
2019-01-26T01:33:20.930Z,28.77
2019-01-26T01:35:49.614Z,31.73
2019-01-26T01:38:18.423Z,29.97
2019-01-26T01:40:47.314Z,30.90
2019-01-26T01:43:16.206Z,31.37
2019-01-26T01:45:45.200Z,30.23
2019-01-26T01:48:13.987Z,30.27
2019-01-26T01:50:42.674Z,31.00
2019-01-26T01:53:11.462Z,30.83
2019-01-26T01:55:40.251Z,28.40
2019-01-26T01:58:09.045Z,31.13
2019-01-26T02:00:37.861Z,31.47
2019-01-26T02:03:06.618Z,30.37
2019-01-26T02:05:35.261Z,30.70
2019-01-26T02:08:03.990Z,28.87
2019-01-26T02:10:32.758Z,27.50
2019-01-26T02:13:04.608Z,28.47
2019-01-26T02:15:37.096Z,29.50
2019-01-26T02:18:05.906Z,29.13
2019-01-26T02:20:34.796Z,25.57
2019-01-26T02:23:03.589Z,29.57
2019-01-26T02:25:32.374Z,27.20
2019-01-26T02:28:01.060Z,28.30
2019-01-26T02:30:29.722Z,25.63
2019-01-26T02:32:59.329Z,26.00
2019-01-26T02:35:28.041Z,24.60
2019-01-26T02:37:56.831Z,28.93
2019-01-26T02:40:25.619Z,26.50
2019-01-26T02:42:54.306Z,27.53
2019-01-26T02:45:22.991Z,26.10
2019-01-26T02:47:51.885Z,25.63
2019-01-26T02:50:20.571Z,29.73
2019-01-26T02:52:49.229Z,26.77
2019-01-26T02:55:18.045Z,28.53
2019-01-26T02:57:46.855Z,27.70
2019-01-26T03:00:21.340Z,32.83
2019-01-26T03:02:50.260Z,32.87
2019-01-26T03:05:19.351Z,31.40
2019-01-26T03:07:48.134Z,34.43
2019-01-26T03:10:19.061Z,31.60
2019-01-26T03:12:47.865Z,35.87
2019-01-26T03:15:19.057Z,36.20
2019-01-26T03:17:48.002Z,36.87
2019-01-26T03:20:17.390Z,38.00
2019-01-26T03:22:46.195Z,30.90
2019-01-26T03:25:15.907Z,36.03
2019-01-26T03:27:44.695Z,30.97
2019-01-26T03:30:19.221Z,33.87
2019-01-26T03:32:47.927Z,32.97
2019-01-26T03:35:16.793Z,32.27
2019-01-26T03:37:45.480Z,29.57
2019-01-26T03:40:16.797Z,34.10
2019-01-26T03:42:45.520Z,30.43
2019-01-26T03:45:15.501Z,33.73
2019-01-26T03:47:44.321Z,33.57
2019-01-26T03:50:14.779Z,34.73
2019-01-26T03:52:43.535Z,34.87
2019-01-26T03:55:14.682Z,35.23
2019-01-26T03:57:43.349Z,30.97
2019-01-26T04:00:15.128Z,35.90
2019-01-26T04:02:43.889Z,30.73
2019-01-26T04:05:12.605Z,35.23
2019-01-26T04:07:41.266Z,32.40
2019-01-26T04:10:12.008Z,38.20
2019-01-26T04:12:40.824Z,31.20
2019-01-26T04:15:19.536Z,35.07
2019-01-26T04:17:48.425Z,36.33
2019-01-26T04:20:19.745Z,35.53
2019-01-26T04:22:48.671Z,31.10
2019-01-26T04:25:17.665Z,35.37
2019-01-26T04:27:46.520Z,32.70
2019-01-26T04:30:20.458Z,35.30
2019-01-26T04:32:49.247Z,30.83
2019-01-26T04:35:17.932Z,37.90
2019-01-26T04:37:47.647Z,33.93
2019-01-26T04:40:17.901Z,37.47
2019-01-26T04:42:46.677Z,35.43
2019-01-26T04:45:20.615Z,32.77
2019-01-26T04:47:49.352Z,36.40
2019-01-26T04:50:19.502Z,32.03
2019-01-26T04:52:48.440Z,36.33
2019-01-26T04:55:20.022Z,30.20
2019-01-26T04:57:48.829Z,32.83
2019-01-26T05:00:25.444Z,29.47
2019-01-26T05:02:54.170Z,32.97
2019-01-26T05:05:22.849Z,35.23
2019-01-26T05:07:51.637Z,31.57
2019-01-26T05:10:21.203Z,35.57
2019-01-26T05:12:50.357Z,29.13
2019-01-26T05:15:19.354Z,33.53
2019-01-26T05:17:48.136Z,28.73
2019-01-26T05:20:22.246Z,31.83
2019-01-26T05:22:51.161Z,33.97
2019-01-26T05:25:20.007Z,28.53
2019-01-26T05:27:48.790Z,31.67
2019-01-26T05:30:22.907Z,28.93
2019-01-26T05:32:51.616Z,33.57
2019-01-26T05:35:20.510Z,27.87
2019-01-26T05:37:49.588Z,33.87
2019-01-26T05:40:19.295Z,28.40
2019-01-26T05:42:48.122Z,34.03
2019-01-26T05:45:21.255Z,30.00
2019-01-26T05:47:50.086Z,31.40
2019-01-26T05:50:20.704Z,34.60
2019-01-26T05:52:49.382Z,30.33
2019-01-26T05:55:18.193Z,38.67
2019-01-26T05:57:46.980Z,32.13
2019-01-26T06:00:27.421Z,34.90
2019-01-26T06:02:56.232Z,30.13
2019-01-26T06:05:25.020Z,32.40
2019-01-26T06:07:53.810Z,36.70
2019-01-26T06:10:22.597Z,32.20
2019-01-26T06:12:51.495Z,35.57
2019-01-26T06:15:20.381Z,35.43
2019-01-26T06:17:54.938Z,35.00
2019-01-26T06:20:19.707Z,36.03
2019-01-26T06:22:48.364Z,33.77
2019-01-26T06:25:19.089Z,38.73
2019-01-26T06:27:47.891Z,33.47
2019-01-26T06:30:21.245Z,36.17
2019-01-26T06:32:50.093Z,36.07
2019-01-26T06:35:18.884Z,39.97
2019-01-26T06:37:47.574Z,35.53
2019-01-26T06:40:17.926Z,38.60
2019-01-26T06:42:46.793Z,38.17
2019-01-26T06:45:37.696Z,42.57
2019-01-26T06:48:02.216Z,37.13
2019-01-26T06:50:31.380Z,42.23
2019-01-26T06:53:00.067Z,40.30
2019-01-26T06:55:28.969Z,51.20
2019-01-26T06:57:58.059Z,45.43
2019-01-26T07:00:28.484Z,44.30
2019-01-26T07:02:57.173Z,40.50
2019-01-26T07:05:42.857Z,45.83
2019-01-26T07:08:13.283Z,41.47
2019-01-26T07:10:42.071Z,47.27
2019-01-26T07:13:10.859Z,44.27
2019-01-26T07:15:39.646Z,44.97
2019-01-26T07:18:09.461Z,43.03
2019-01-26T07:20:38.761Z,50.17
2019-01-26T07:23:07.651Z,47.50
2019-01-26T07:25:36.323Z,51.40
2019-01-26T07:28:05.231Z,48.73
2019-01-26T07:30:33.916Z,61.80
2019-01-26T07:33:02.602Z,53.27
2019-01-26T07:35:31.390Z,54.87
2019-01-26T07:38:00.077Z,52.50
2019-01-26T07:40:28.853Z,56.33
2019-01-26T07:42:58.844Z,53.07
2019-01-26T07:45:27.775Z,57.77
2019-01-26T07:47:56.572Z,62.30
2019-01-26T07:50:26.978Z,58.27
2019-01-26T07:52:55.722Z,54.17
2019-01-26T07:55:24.384Z,56.60
2019-01-26T07:57:53.078Z,57.70
2019-01-26T08:00:29.093Z,57.17
2019-01-26T08:02:58.387Z,52.13
2019-01-26T08:05:27.173Z,53.70
2019-01-26T08:07:55.997Z,58.57
2019-01-26T08:10:29.488Z,68.27
2019-01-26T08:12:58.173Z,56.77
2019-01-26T08:15:34.342Z,59.80
2019-01-26T08:18:12.750Z,59.70
2019-01-26T08:20:45.131Z,60.90
2019-01-26T08:23:14.093Z,58.93
2019-01-26T08:25:42.882Z,60.33
2019-01-26T08:28:11.669Z,59.83
2019-01-26T08:30:40.381Z,59.17
2019-01-26T08:33:09.175Z,58.30
2019-01-26T08:35:38.476Z,57.80
2019-01-26T08:38:07.263Z,71.07
2019-01-26T08:40:36.052Z,64.57
2019-01-26T08:43:04.813Z,65.37
2019-01-26T08:45:40.746Z,65.67
2019-01-26T08:48:10.593Z,58.33
2019-01-26T08:50:39.520Z,60.90
2019-01-26T08:53:08.392Z,49.07
2019-01-26T08:55:37.164Z,54.00
2019-01-26T08:58:06.176Z,45.17
2019-01-26T09:00:34.967Z,51.83
2019-01-26T09:03:05.290Z,43.27
2019-01-26T09:05:38.583Z,53.13
2019-01-26T09:08:07.371Z,48.57
2019-01-26T09:10:36.076Z,52.33
2019-01-26T09:13:04.950Z,54.77
2019-01-26T09:15:35.582Z,58.00
2019-01-26T09:18:04.368Z,57.53
2019-01-26T09:20:33.140Z,56.23
2019-01-26T09:23:01.949Z,57.73
2019-01-26T09:25:30.735Z,64.57
2019-01-26T09:27:59.729Z,60.60
2019-01-26T09:30:28.517Z,49.77
2019-01-26T09:32:57.451Z,55.97
2019-01-26T09:35:26.301Z,69.13
2019-01-26T09:37:55.093Z,52.43
2019-01-26T09:40:24.493Z,52.03
2019-01-26T09:42:53.282Z,57.77
2019-01-26T09:45:22.289Z,50.70
2019-01-26T09:47:51.039Z,44.93
2019-01-26T09:50:24.504Z,50.17
2019-01-26T09:52:53.557Z,51.47
2019-01-26T09:55:22.756Z,62.07
2019-01-26T09:57:51.544Z,46.70
2019-01-26T10:00:28.530Z,47.50
2019-01-26T10:02:57.316Z,44.30
2019-01-26T10:05:26.000Z,48.40
2019-01-26T10:07:54.794Z,52.30
2019-01-26T10:10:25.120Z,53.17
2019-01-26T10:12:53.800Z,49.60
2019-01-26T10:15:28.148Z,52.97
2019-01-26T10:17:57.117Z,51.63
2019-01-26T10:20:31.621Z,54.73
2019-01-26T10:23:11.808Z,46.23
2019-01-26T10:25:40.567Z,41.03
2019-01-26T10:28:09.273Z,37.57
2019-01-26T10:30:46.161Z,37.93
2019-01-26T10:33:15.043Z,42.80
2019-01-26T10:36:03.687Z,42.17
2019-01-26T10:38:34.200Z,43.40
2019-01-26T10:41:04.751Z,44.40
2019-01-26T10:43:35.178Z,42.87
2019-01-26T10:46:08.169Z,49.17
2019-01-26T10:48:37.030Z,44.67
2019-01-26T10:51:06.577Z,48.97
2019-01-26T10:53:35.559Z,47.23
2019-01-26T10:56:06.893Z,48.03
2019-01-26T10:58:35.703Z,41.17
2019-01-26T11:01:04.984Z,45.87
2019-01-26T11:03:33.770Z,40.73
2019-01-26T11:06:02.472Z,46.80
2019-01-26T11:08:31.161Z,44.10
2019-01-26T11:11:00.048Z,43.43
2019-01-26T11:13:30.337Z,45.60
2019-01-26T11:15:59.164Z,44.47
2019-01-26T11:18:27.951Z,43.73
2019-01-26T11:20:56.686Z,44.73
2019-01-26T11:23:25.419Z,43.37
2019-01-26T11:25:54.214Z,40.00
2019-01-26T11:28:23.004Z,37.40
2019-01-26T11:30:51.679Z,37.67
2019-01-26T11:33:20.594Z,42.70
2019-01-26T11:35:49.472Z,38.97
2019-01-26T11:38:18.250Z,44.77
2019-01-26T11:40:47.136Z,41.17
2019-01-26T11:43:15.943Z,45.80
2019-01-26T11:45:46.250Z,47.03
2019-01-26T11:48:37.457Z,42.07
2019-01-26T11:51:07.911Z,42.00
2019-01-26T11:53:37.624Z,51.60
2019-01-26T11:56:14.190Z,51.53
2019-01-26T11:58:42.876Z,46.63
2019-01-26T12:01:22.212Z,45.57
2019-01-26T12:03:52.537Z,46.37
2019-01-26T12:06:23.712Z,38.67
2019-01-26T12:08:52.676Z,42.33
2019-01-26T12:11:21.363Z,37.47
2019-01-26T12:14:30.546Z,45.70
2019-01-26T12:16:59.376Z,46.73
2019-01-26T12:19:28.179Z,44.93
2019-01-26T12:22:11.191Z,43.47
2019-01-26T12:25:38.166Z,43.53
2019-01-26T12:28:07.913Z,36.53
2019-01-26T12:30:36.652Z,41.33
2019-01-26T12:33:05.566Z,46.03
2019-01-26T12:35:37.230Z,38.73
2019-01-26T12:38:06.097Z,31.47
2019-01-26T12:40:34.890Z,38.70
2019-01-26T12:43:03.652Z,36.43
2019-01-26T12:45:40.307Z,36.93
2019-01-26T12:48:09.113Z,34.23
2019-01-26T12:50:37.922Z,33.33
2019-01-26T12:53:06.607Z,34.60
2019-01-26T12:55:36.189Z,34.53
2019-01-26T12:58:04.877Z,31.77
2019-01-26T13:00:35.208Z,25.43
2019-01-26T13:03:04.153Z,38.33
2019-01-26T13:05:32.809Z,31.77
2019-01-26T13:08:01.598Z,42.13
2019-01-26T13:10:36.533Z,33.37
2019-01-26T13:13:06.018Z,37.50
2019-01-26T13:15:34.718Z,34.40
2019-01-26T13:18:03.507Z,31.60
2019-01-26T13:20:32.318Z,32.33
2019-01-26T13:23:01.218Z,28.47
2019-01-26T13:25:30.079Z,31.83
2019-01-26T13:27:58.765Z,28.43
2019-01-26T13:30:27.424Z,28.97
2019-01-26T13:32:56.241Z,29.33
2019-01-26T13:35:25.132Z,28.13
2019-01-26T13:37:53.906Z,28.40
2019-01-26T13:40:28.220Z,29.30
2019-01-26T13:42:57.011Z,27.70
2019-01-26T13:45:25.820Z,23.93
2019-01-26T13:47:54.606Z,24.97
2019-01-26T13:50:23.296Z,25.47
2019-01-26T13:52:51.979Z,27.27
2019-01-26T13:55:23.327Z,26.37
2019-01-26T13:57:53.017Z,25.47
2019-01-26T14:00:27.136Z,27.23
2019-01-26T14:02:55.940Z,28.00
2019-01-26T14:05:24.733Z,29.10
2019-01-26T14:07:53.631Z,33.47
2019-01-26T14:10:24.092Z,35.53
2019-01-26T14:12:52.921Z,36.37
2019-01-26T14:15:22.761Z,33.37
2019-01-26T14:17:51.646Z,32.33
2019-01-26T14:20:22.876Z,35.17
2019-01-26T14:22:51.683Z,30.00
2019-01-26T14:25:20.574Z,37.33
2019-01-26T14:27:49.349Z,37.90
2019-01-26T14:30:26.545Z,36.27
2019-01-26T14:32:55.233Z,34.97
2019-01-26T14:35:24.020Z,37.33
2019-01-26T14:37:52.912Z,40.67
2019-01-26T14:40:21.701Z,34.40
2019-01-26T14:42:54.491Z,34.53
2019-01-26T14:45:20.827Z,32.07
2019-01-26T14:47:49.503Z,37.70
2019-01-26T14:50:19.127Z,33.83
2019-01-26T14:52:48.311Z,33.37
2019-01-26T14:55:19.969Z,31.93
2019-01-26T14:57:48.755Z,41.43
2019-01-26T15:00:28.705Z,41.40
2019-01-26T15:02:57.391Z,41.67
2019-01-26T15:05:26.180Z,47.60
2019-01-26T15:07:55.175Z,40.80
2019-01-26T15:10:23.962Z,47.37
2019-01-26T15:12:52.752Z,59.23
2019-01-26T15:15:21.939Z,79.63
2019-01-26T15:17:50.841Z,81.77
2019-01-26T15:20:28.591Z,84.07
2019-01-26T15:22:57.303Z,88.20
2019-01-26T15:25:26.013Z,92.53
2019-01-26T15:27:54.904Z,91.23
2019-01-26T15:30:29.018Z,92.43
2019-01-26T15:32:57.805Z,72.37
2019-01-26T15:35:26.799Z,74.13
2019-01-26T15:37:55.587Z,96.70
2019-01-26T15:40:24.375Z,92.27
2019-01-26T15:42:53.268Z,107.03
2019-01-26T15:45:24.719Z,120.17
2019-01-26T15:47:53.507Z,188.43
2019-01-26T15:50:23.200Z,216.50
2019-01-26T15:52:51.903Z,246.83
2019-01-26T15:55:25.813Z,193.70
2019-01-26T15:57:54.586Z,203.37
2019-01-26T16:00:32.100Z,152.53
2019-01-26T16:03:01.090Z,206.83
2019-01-26T16:05:29.869Z,222.70
2019-01-26T16:07:58.774Z,169.97
2019-01-26T16:10:27.819Z,220.67
2019-01-26T16:12:56.758Z,308.90
2019-01-26T16:15:30.655Z,252.23
2019-01-26T16:17:59.439Z,236.67
2019-01-26T16:20:28.226Z,234.23
2019-01-26T16:22:57.115Z,212.53
2019-01-26T16:25:25.902Z,255.03
2019-01-26T16:27:54.816Z,190.93
2019-01-26T16:30:26.879Z,239.63
2019-01-26T16:32:55.808Z,217.50
2019-01-26T16:35:25.371Z,241.53
2019-01-26T16:37:54.152Z,304.03
2019-01-26T16:40:27.960Z,306.33
2019-01-26T16:46:02.929Z,273.40
2019-01-26T16:48:31.719Z,279.50
2019-01-26T16:51:00.511Z,259.47
2019-01-26T16:53:29.295Z,260.50
2019-01-26T16:56:02.181Z,323.70
2019-01-26T16:58:31.072Z,308.50
2019-01-26T17:01:00.830Z,346.07
2019-01-26T17:03:29.677Z,320.23
2019-01-26T17:05:59.562Z,272.73
2019-01-26T17:08:29.370Z,259.13
2019-01-26T17:10:58.303Z,252.37
2019-01-26T17:13:27.502Z,282.77
2019-01-26T17:15:56.956Z,290.53
2019-01-26T17:18:26.081Z,301.80
2019-01-26T17:20:54.984Z,258.10
2019-01-26T17:23:23.880Z,222.47
2019-01-26T17:25:52.668Z,254.77
2019-01-26T17:28:21.760Z,222.07
2019-01-26T17:30:51.780Z,205.40
2019-01-26T17:33:22.847Z,183.40
2019-01-26T17:35:55.214Z,204.10
2019-01-26T17:38:24.087Z,211.37
2019-01-26T17:40:54.516Z,210.47
2019-01-26T17:43:23.301Z,203.43
2019-01-26T17:45:52.095Z,212.40
2019-01-26T17:48:20.904Z,200.47
2019-01-26T17:50:49.709Z,174.27
2019-01-26T17:53:18.439Z,175.17
2019-01-26T17:55:47.247Z,256.17
2019-01-26T17:58:16.035Z,261.60
2019-01-26T18:00:52.911Z,263.60
2019-01-26T18:03:22.930Z,266.23
2019-01-26T18:05:53.581Z,285.70
2019-01-26T18:11:51.791Z,244.20
2019-01-26T18:14:20.657Z,318.30
2019-01-26T18:16:49.322Z,266.17
2019-01-26T18:19:18.231Z,332.73
2019-01-26T18:21:47.020Z,318.43
2019-01-26T18:24:15.808Z,283.03
2019-01-26T18:26:44.700Z,295.97
2019-01-26T18:29:13.593Z,273.70
2019-01-26T18:31:42.482Z,234.67
2019-01-26T18:34:11.142Z,249.07
2019-01-26T18:36:39.854Z,235.40
2019-01-26T18:39:08.630Z,206.63
2019-01-26T18:41:37.435Z,204.77
2019-01-26T18:44:06.224Z,188.00
2019-01-26T18:46:35.113Z,200.57
2019-01-26T18:49:03.815Z,208.30
2019-01-26T18:51:32.886Z,199.57
2019-01-26T18:54:01.789Z,187.20
2019-01-26T18:56:30.691Z,186.10
2019-01-26T18:58:59.673Z,208.23
2019-01-26T19:01:28.676Z,298.07
2019-01-26T19:04:03.295Z,293.70
2019-01-26T19:06:32.183Z,303.50
2019-01-26T19:09:02.611Z,353.90
2019-01-26T19:11:31.606Z,310.83
2019-01-26T19:14:00.382Z,306.07
2019-01-26T19:16:29.081Z,306.13
2019-01-26T19:18:58.076Z,306.33
2019-01-26T19:21:26.965Z,293.37
2019-01-26T19:23:55.742Z,310.07
2019-01-26T19:26:24.632Z,280.57
2019-01-26T19:28:53.311Z,265.67
2019-01-26T19:31:22.107Z,250.73
2019-01-26T19:33:51.223Z,250.73
2019-01-26T19:36:20.210Z,316.87
2019-01-26T19:38:51.610Z,309.13
2019-01-26T19:41:20.457Z,296.00
2019-01-26T19:43:49.343Z,283.03
2019-01-26T19:46:18.237Z,323.60
2019-01-26T19:48:47.006Z,336.43
2019-01-26T19:51:15.662Z,353.67
2019-01-26T19:53:44.499Z,213.07
2019-01-26T19:56:14.411Z,217.37
2019-01-26T19:58:43.191Z,215.10
2019-01-26T20:01:11.990Z,175.73
2019-01-26T20:03:40.881Z,160.40
2019-01-26T20:06:09.775Z,154.93
2019-01-26T20:08:38.654Z,164.30
2019-01-26T20:11:09.007Z,184.20
2019-01-26T20:13:38.422Z,174.23
2019-01-26T20:16:07.179Z,171.87
2019-01-26T20:18:36.594Z,148.90
2019-01-26T20:21:05.884Z,141.47
2019-01-26T20:23:34.664Z,135.43
2019-01-26T20:26:04.169Z,158.57
2019-01-26T20:28:51.081Z,196.87
2019-01-26T20:31:20.584Z,282.23
2019-01-26T20:33:49.387Z,303.70
2019-01-26T20:36:18.335Z,339.47
2019-01-26T20:38:47.273Z,368.73
2019-01-26T20:41:16.164Z,250.83
2019-01-26T20:43:45.159Z,243.43
2019-01-26T20:46:14.047Z,175.43
2019-01-26T20:48:42.734Z,171.17
2019-01-26T20:51:11.626Z,173.43
2019-01-26T20:53:40.415Z,160.87
2019-01-26T20:56:09.102Z,152.33
2019-01-26T20:58:37.998Z,158.00
2019-01-26T21:01:06.975Z,168.00
2019-01-26T21:03:35.773Z,169.47
2019-01-26T21:06:04.564Z,158.87
2019-01-26T21:08:33.558Z,161.20
2019-01-26T21:11:02.654Z,156.13
2019-01-26T21:13:31.329Z,164.23
2019-01-26T21:16:00.235Z,152.13
2019-01-26T21:18:31.831Z,136.63
2019-01-26T21:21:00.685Z,143.10
2019-01-26T21:23:29.671Z,175.07
2019-01-26T21:25:58.447Z,220.23
2019-01-26T21:28:27.147Z,187.47
2019-01-26T21:30:56.464Z,187.83
2019-01-26T21:33:25.345Z,198.70
2019-01-26T21:35:54.491Z,244.43
2019-01-26T21:38:23.415Z,250.23
2019-01-26T21:40:52.199Z,254.27
2019-01-26T21:43:21.112Z,234.70
2019-01-26T21:45:49.900Z,240.77
2019-01-26T21:48:18.689Z,241.47
2019-01-26T21:50:47.680Z,263.47
2019-01-26T21:53:16.468Z,270.80
2019-01-26T21:55:45.132Z,290.40
2019-01-26T21:58:13.955Z,284.97
2019-01-26T22:00:43.142Z,288.80
2019-01-26T22:03:11.930Z,284.20
2019-01-26T22:05:41.409Z,248.80
2019-01-26T22:08:10.943Z,220.10
2019-01-26T22:10:39.721Z,186.80
2019-01-26T22:13:08.507Z,135.07
2019-01-26T22:15:37.400Z,198.23
2019-01-26T22:18:06.204Z,222.20
2019-01-26T22:20:34.969Z,243.87
2019-01-26T22:23:03.881Z,254.17
2019-01-26T22:25:32.670Z,513.00
2019-01-26T22:28:02.261Z,445.53
2019-01-26T22:30:34.558Z,419.73
2019-01-26T22:33:08.329Z,427.57
2019-01-26T22:35:37.164Z,472.50
2019-01-26T22:38:06.457Z,463.10
2019-01-26T22:40:36.078Z,441.50
2019-01-26T22:43:04.970Z,393.53
2019-01-26T22:45:35.596Z,331.23
2019-01-26T22:48:04.682Z,345.03
2019-01-26T22:50:36.642Z,361.20
2019-01-26T22:53:07.375Z,357.30
2019-01-26T22:55:37.977Z,329.40
2019-01-26T22:58:07.614Z,336.03
2019-01-26T23:01:01.949Z,350.30
2019-01-26T23:03:36.569Z,368.03
2019-01-26T23:06:35.573Z,356.27
2019-01-26T23:09:22.539Z,325.50
2019-01-26T23:12:03.203Z,312.17
2019-01-26T23:15:01.862Z,288.77
2019-01-26T23:17:36.684Z,247.03
2019-01-26T23:20:20.465Z,238.97
2019-01-26T23:23:06.969Z,196.67
2019-01-26T23:25:56.645Z,170.03
2019-01-26T23:28:43.357Z,161.93
2019-01-26T23:31:18.851Z,160.53
2019-01-26T23:33:47.776Z,150.00
2019-01-26T23:36:16.789Z,149.77
2019-01-26T23:38:45.493Z,155.57
2019-01-26T23:41:17.027Z,166.93
2019-01-26T23:43:45.816Z,194.23
2019-01-26T23:46:14.606Z,231.13
2019-01-26T23:48:43.396Z,248.80
2019-01-26T23:51:12.081Z,227.27
2019-01-26T23:53:40.991Z,188.30
2019-01-26T23:56:09.968Z,227.80
2019-01-26T23:58:38.856Z,208.27
